Time;durP1;ratioP1;P1;durP2;ratioP2;P2;SDS_P1;SDS_P2;PMS_P1;PMS_P2;Temp;Humidity;BMP_temperature;BMP_pressure;BME280_temperature;BME280_humidity;BME280_pressure;Samples;Min_cycle;Max_cycle;Signal;HPM_P1;HPM_P2
2021/12/16 00:08:54;;;;;;;9.60;8.60;;;11.20;57.80;;;;;;5094904;28;20878;-56
2021/12/16 00:19:26;;;;;;;11.23;9.13;;;10.60;59.00;;;;;;5087016;28;20444;-56
2021/12/16 00:31:30;;;;;;;11.90;10.27;;;9.00;66.50;;;;;;5088999;28;20458;-55
2021/12/16 00:33:42;;;;;;;12.93;10.37;;;9.00;67.60;;;;;;5083063;28;20460;-55
2021/12/16 00:36:10;;;;;;;11.40;9.90;;;9.00;66.50;;;;;;5089135;28;20452;-57
2021/12/16 00:38:39;;;;;;;11.27;9.27;;;8.90;67.40;;;;;;5089223;28;20489;-56
2021/12/16 00:41:05;;;;;;;14.00;11.17;;;9.10;67.40;;;;;;5088181;28;20438;-55
2021/12/16 00:43:42;;;;;;;13.33;10.07;;;9.10;67.70;;;;;;5103764;28;20444;-55
2021/12/16 00:54:09;;;;;;;11.00;9.30;;;9.20;66.70;;;;;;5090006;28;21223;-56
2021/12/16 00:56:36;;;;;;;9.23;7.83;;;9.40;65.90;;;;;;5093061;28;20470;-56
2021/12/16 00:59:04;;;;;;;10.00;8.33;;;9.40;65.10;;;;;;5086623;28;20484;-55
2021/12/16 01:34:15;;;;;;;9.23;7.77;;;9.50;63.90;;;;;;5091057;28;20459;-56
2021/12/16 01:42:30;;;;;;;11.83;7.60;;;9.20;65.40;;;;;;5094213;28;20459;-56
2021/12/16 01:48:06;;;;;;;8.17;6.57;;;9.10;65.10;;;;;;5094267;28;20505;-56
2021/12/16 01:50:35;;;;;;;8.27;6.80;;;8.70;66.20;;;;;;5095919;28;20502;-55
2021/12/16 01:55:52;;;;;;;8.07;6.23;;;8.80;66.70;;;;;;5097367;28;20916;-55
2021/12/16 01:58:21;;;;;;;8.73;6.47;;;8.90;66.30;;;;;;5094044;28;20472;-56
2021/12/16 02:01:18;;;;;;;8.50;6.50;;;9.20;65.50;;;;;;5092452;28;20436;-54
2021/12/16 02:04:00;;;;;;;9.67;7.40;;;9.10;65.00;;;;;;5093001;28;20815;-55
2021/12/16 02:09:30;;;;;;;8.83;7.10;;;9.00;65.20;;;;;;5093500;28;20464;-55
2021/12/16 02:12:09;;;;;;;7.30;6.00;;;8.90;65.90;;;;;;5098095;28;20452;-55
2021/12/16 02:31:52;;;;;;;8.60;6.73;;;9.40;63.30;;;;;;5091560;28;20440;-56
2021/12/16 02:34:28;;;;;;;9.37;6.90;;;9.30;64.60;;;;;;5092505;28;20974;-55
2021/12/16 02:36:54;;;;;;;8.00;5.83;;;9.40;64.40;;;;;;5094692;28;20448;-55
2021/12/16 02:39:28;;;;;;;8.97;6.60;;;9.40;64.10;;;;;;5096611;28;20487;-55
2021/12/16 02:41:59;;;;;;;9.73;7.43;;;9.20;64.50;;;;;;5093558;28;20824;-55
2021/12/16 02:44:32;;;;;;;8.27;6.87;;;9.30;65.00;;;;;;5094960;28;20541;-55
2021/12/16 02:49:51;;;;;;;8.20;6.63;;;9.50;64.10;;;;;;5090224;28;20498;-55
2021/12/16 02:52:20;;;;;;;9.30;6.53;;;9.80;63.60;;;;;;5095017;28;20448;-55
2021/12/16 02:54:47;;;;;;;8.93;5.97;;;10.00;61.50;;;;;;5095732;28;20496;-55
2021/12/16 02:57:15;;;;;;;8.17;6.50;;;10.20;61.20;;;;;;5090709;28;20523;-55
2021/12/16 02:59:42;;;;;;;10.87;7.13;;;10.30;60.30;;;;;;5094116;28;20512;-55
2021/12/16 03:02:14;;;;;;;7.90;6.27;;;10.40;60.10;;;;;;5091170;27;20971;-55
2021/12/16 03:04:42;;;;;;;9.30;7.60;;;10.50;59.80;;;;;;5097477;28;20455;-56
2021/12/16 03:07:10;;;;;;;8.57;6.20;;;10.60;59.60;;;;;;5093661;28;20475;-54
2021/12/16 03:15:12;;;;;;;8.70;6.67;;;10.80;59.00;;;;;;5090760;28;21630;-55
2021/12/16 03:17:57;;;;;;;9.73;6.63;;;10.50;59.10;;;;;;5092658;28;21008;-56
2021/12/16 03:20:41;;;;;;;11.80;7.93;;;10.40;59.50;;;;;;5090829;28;20456;-55
2021/12/16 03:26:10;;;;;;;11.00;8.20;;;10.30;59.90;;;;;;5094745;28;20437;-56
2021/12/16 03:39:52;;;;;;;10.40;8.83;;;10.60;59.60;;;;;;5092064;28;20499;-55
2021/12/16 03:42:30;;;;;;;11.33;8.63;;;10.70;59.50;;;;;;5093248;28;20895;-55
2021/12/16 03:45:06;;;;;;;12.13;9.67;;;10.80;59.20;;;;;;5087032;28;20436;-56
2021/12/16 03:47:47;;;;;;;12.50;9.23;;;10.80;59.00;;;;;;5096931;28;20455;-56
2021/12/16 03:50:19;;;;;;;13.77;10.10;;;10.70;59.20;;;;;;5089862;28;20503;-55
2021/12/16 03:52:47;;;;;;;13.40;10.20;;;10.60;59.20;;;;;;5086607;28;20464;-56
2021/12/16 03:55:13;;;;;;;12.97;10.07;;;10.60;59.50;;;;;;5093181;28;20486;-55
2021/12/16 03:57:39;;;;;;;13.07;10.10;;;10.50;59.30;;;;;;5089128;28;20440;-56
2021/12/16 04:00:09;;;;;;;14.10;9.83;;;10.40;59.40;;;;;;5085863;28;22255;-56
2021/12/16 04:02:36;;;;;;;14.83;9.57;;;10.30;59.90;;;;;;5087605;28;20269;-57
2021/12/16 04:05:04;;;;;;;13.67;10.40;;;10.40;59.80;;;;;;5088034;28;20445;-55
2021/12/16 04:07:32;;;;;;;12.37;9.70;;;10.60;59.70;;;;;;5089162;28;20898;-55
2021/12/16 04:09:58;;;;;;;12.63;9.30;;;10.70;59.60;;;;;;5090999;28;20467;-58
2021/12/16 04:12:26;;;;;;;12.77;9.23;;;10.70;59.40;;;;;;5093748;28;20802;-55
2021/12/16 04:14:54;;;;;;;12.40;9.13;;;10.80;59.20;;;;;;5089469;28;22103;-56
2021/12/16 04:17:22;;;;;;;14.60;10.20;;;10.70;59.10;;;;;;5088205;28;20451;-55
2021/12/16 04:19:49;;;;;;;13.67;10.93;;;10.70;59.20;;;;;;5086847;28;21232;-56
2021/12/16 04:22:27;;;;;;;10.90;9.57;;;10.70;59.10;;;;;;5088831;28;20516;-56
2021/12/16 04:24:54;;;;;;;11.30;8.30;;;10.70;59.30;;;;;;5088793;28;20466;-55
2021/12/16 04:27:20;;;;;;;11.67;9.20;;;10.70;59.10;;;;;;5090260;28;20429;-55
2021/12/16 04:29:46;;;;;;;13.40;10.30;;;10.40;59.50;;;;;;5090339;28;20447;-55
2021/12/16 04:32:12;;;;;;;13.60;10.80;;;10.10;60.80;;;;;;5088352;28;20594;-55
2021/12/16 04:34:38;;;;;;;12.93;10.10;;;9.80;63.00;;;;;;5090634;28;20527;-56
2021/12/16 04:37:04;;;;;;;15.17;10.30;;;9.70;64.20;;;;;;5095063;28;20443;-55
2021/12/16 04:39:32;;;;;;;14.60;10.47;;;9.80;64.00;;;;;;5089571;28;20570;-56
2021/12/16 04:41:58;;;;;;;15.67;10.90;;;9.30;64.60;;;;;;5097414;28;20465;-55
2021/12/16 04:44:27;;;;;;;21.80;11.10;;;8.90;66.70;;;;;;5090954;28;20441;-56
2021/12/16 04:46:54;;;;;;;16.10;11.77;;;8.70;67.60;;;;;;5089740;28;20470;-56
2021/12/16 04:49:20;;;;;;;17.20;12.77;;;8.60;68.50;;;;;;5089771;28;20445;-55
2021/12/16 04:51:49;;;;;;;18.00;12.40;;;8.40;69.60;;;;;;5091868;28;20434;-56
2021/12/16 04:54:19;;;;;;;18.43;12.80;;;8.30;70.10;;;;;;5088183;28;20441;-55
2021/12/16 04:56:47;;;;;;;15.67;11.37;;;8.20;70.90;;;;;;5090570;28;20472;-55
2021/12/16 04:59:15;;;;;;;17.67;12.97;;;8.30;70.80;;;;;;5088175;28;20480;-56
2021/12/16 05:01:44;;;;;;;19.13;13.37;;;8.50;70.40;;;;;;5091519;28;20440;-55
2021/12/16 05:04:10;;;;;;;15.30;11.10;;;8.70;69.00;;;;;;5091091;28;20442;-55
2021/12/16 05:06:35;;;;;;;18.33;12.90;;;8.80;69.10;;;;;;5090144;28;20799;-55
2021/12/16 05:09:05;;;;;;;18.80;13.20;;;8.60;68.90;;;;;;5091299;28;20444;-55
2021/12/16 05:11:34;;;;;;;16.83;12.23;;;8.80;69.20;;;;;;5086526;28;20831;-56
2021/12/16 05:14:00;;;;;;;17.90;12.00;;;9.00;68.50;;;;;;5091524;28;20780;-54
2021/12/16 05:16:26;;;;;;;17.87;12.03;;;9.20;67.70;;;;;;5091149;28;20440;-55
2021/12/16 05:18:54;;;;;;;20.27;13.50;;;9.20;67.40;;;;;;5097035;28;20507;-56
2021/12/16 05:24:15;;;;;;;17.10;12.13;;;9.30;67.10;;;;;;5089023;28;20210;-55
2021/12/16 05:24:16;;;;;;;20.50;12.43;;;9.50;66.40;;;;;;5081211;28;20998;-56
2021/12/16 05:26:43;;;;;;;18.97;12.03;;;9.50;65.60;;;;;;5089292;28;20445;-55
2021/12/16 05:29:10;;;;;;;15.27;11.40;;;9.60;65.40;;;;;;5088801;28;20452;-55
2021/12/16 05:31:36;;;;;;;16.53;11.37;;;9.80;65.10;;;;;;5092373;28;20441;-55
2021/12/16 05:34:05;;;;;;;16.37;11.80;;;9.90;64.50;;;;;;5090424;28;20444;-54
2021/12/16 05:36:30;;;;;;;17.30;12.10;;;10.00;63.00;;;;;;5087553;28;20432;-56
2021/12/16 05:38:57;;;;;;;15.20;10.53;;;10.10;62.60;;;;;;5091474;28;21135;-55
2021/12/16 05:41:24;;;;;;;20.97;11.67;;;10.30;62.00;;;;;;5092663;28;20191;-55
2021/12/16 05:43:51;;;;;;;15.87;11.17;;;10.30;61.60;;;;;;5092143;28;20457;-56
2021/12/16 05:46:19;;;;;;;13.67;10.20;;;10.40;61.40;;;;;;5093480;28;20455;-55
2021/12/16 05:48:47;;;;;;;13.80;10.17;;;10.50;60.80;;;;;;5092764;28;21197;-55
2021/12/16 05:51:17;;;;;;;15.30;10.57;;;10.60;60.80;;;;;;5089791;28;20441;-55
2021/12/16 05:53:44;;;;;;;16.90;11.67;;;10.70;60.40;;;;;;5087020;28;20563;-55
2021/12/16 05:56:10;;;;;;;16.00;11.33;;;10.70;60.00;;;;;;5088266;28;20436;-55
2021/12/16 05:58:37;;;;;;;11.97;9.30;;;10.70;59.90;;;;;;5089856;28;20809;-56
2021/12/16 06:01:12;;;;;;;19.07;10.90;;;10.80;59.80;;;;;;5091603;28;20200;-56
2021/12/16 06:03:40;;;;;;;15.37;11.27;;;10.90;59.80;;;;;;5094968;28;20529;-55
2021/12/16 06:06:06;;;;;;;15.70;11.00;;;10.90;59.40;;;;;;5092028;28;20440;-55
2021/12/16 06:08:33;;;;;;;13.63;9.50;;;10.90;59.20;;;;;;5090222;28;20444;-56
2021/12/16 06:13:37;;;;;;;17.77;8.97;;;11.00;59.00;;;;;;5093489;28;20469;-54
2021/12/16 06:27:04;;;;;;;10.10;7.90;;;11.80;60.60;;;;;;5097634;28;20470;-54
2021/12/16 06:29:30;;;;;;;12.93;9.07;;;11.90;59.50;;;;;;5089288;28;20440;-55
2021/12/16 06:31:56;;;;;;;10.93;9.03;;;12.00;59.40;;;;;;5100303;28;20493;-55
2021/12/16 06:34:22;;;;;;;13.13;10.00;;;12.20;59.00;;;;;;5091867;28;20183;-55
2021/12/16 06:36:47;;;;;;;13.50;9.43;;;12.30;58.20;;;;;;5088434;28;20503;-55
2021/12/16 06:39:13;;;;;;;13.63;9.53;;;12.20;57.30;;;;;;5091601;28;20989;-55
2021/12/16 06:41:40;;;;;;;13.00;9.93;;;12.30;57.70;;;;;;5093480;28;20187;-55
2021/12/16 06:44:16;;;;;;;11.80;8.97;;;12.40;57.20;;;;;;5095490;28;20200;-55
2021/12/16 06:46:44;;;;;;;12.37;9.80;;;12.40;56.70;;;;;;5092968;28;20440;-54
2021/12/16 06:49:13;;;;;;;12.20;9.60;;;12.50;56.80;;;;;;5095743;28;20448;-55
2021/12/16 06:51:48;;;;;;;10.80;9.47;;;12.50;56.20;;;;;;5090497;28;20433;-55
2021/12/16 06:54:22;;;;;;;14.00;10.10;;;12.60;56.10;;;;;;5092495;28;20520;-55
2021/12/16 06:59:32;;;;;;;14.20;11.53;;;12.70;55.40;;;;;;5089084;28;20487;-55
2021/12/16 07:02:15;;;;;;;13.50;11.53;;;12.70;55.00;;;;;;5092111;28;20448;-55
2021/12/16 07:04:43;;;;;;;14.47;11.07;;;12.80;54.90;;;;;;5085887;28;20767;-54
2021/12/16 07:07:10;;;;;;;13.40;9.93;;;12.80;54.70;;;;;;5090744;28;20820;-55
2021/12/16 07:09:37;;;;;;;13.80;10.40;;;12.80;54.70;;;;;;5092801;28;20447;-56
2021/12/16 07:12:05;;;;;;;16.70;12.00;;;12.90;55.00;;;;;;5089441;28;20522;-55
2021/12/16 07:14:40;;;;;;;15.30;11.43;;;12.60;54.30;;;;;;5097889;28;20495;-55
2021/12/16 07:17:12;;;;;;;14.63;9.97;;;12.60;55.30;;;;;;5083959;28;20443;-55
2021/12/16 07:19:40;;;;;;;16.00;12.73;;;12.60;55.30;;;;;;5089912;28;20546;-55
2021/12/16 07:22:07;;;;;;;12.60;10.07;;;12.70;55.00;;;;;;5091764;28;20437;-55
2021/12/16 07:24:33;;;;;;;14.07;11.00;;;12.70;54.70;;;;;;5085251;28;20442;-54
2021/12/16 07:26:59;;;;;;;11.70;9.90;;;12.70;54.60;;;;;;5095515;28;20429;-54
2021/12/16 07:29:27;;;;;;;12.33;9.37;;;12.80;54.70;;;;;;5088438;28;20445;-55
2021/12/16 07:31:53;;;;;;;14.17;10.57;;;12.80;54.60;;;;;;5093129;28;20483;-55
2021/12/16 07:34:19;;;;;;;13.27;8.70;;;12.90;54.40;;;;;;5092564;28;20484;-55
2021/12/16 07:36:45;;;;;;;13.83;10.40;;;13.00;54.20;;;;;;5091324;28;20238;-55
2021/12/16 07:39:14;;;;;;;16.03;9.10;;;12.90;53.70;;;;;;5091161;28;20260;-55
2021/12/16 07:41:41;;;;;;;14.20;9.33;;;12.50;54.20;;;;;;5088356;28;20444;-55
2021/12/16 07:44:11;;;;;;;11.33;8.60;;;12.50;54.90;;;;;;5091653;28;20437;-54
2021/12/16 07:46:44;;;;;;;12.60;10.00;;;12.60;55.00;;;;;;5088045;28;20437;-55
2021/12/16 07:49:13;;;;;;;12.00;9.70;;;12.60;54.50;;;;;;5092646;28;20449;-55
2021/12/16 07:51:39;;;;;;;13.77;9.80;;;12.50;54.20;;;;;;5092823;28;20429;-54
2021/12/16 07:54:06;;;;;;;11.10;9.10;;;12.30;54.80;;;;;;5093393;28;20438;-57
2021/12/16 07:56:32;;;;;;;12.00;8.97;;;12.40;54.90;;;;;;5092511;28;20436;-55
2021/12/16 07:58:57;;;;;;;11.20;8.67;;;12.40;54.80;;;;;;5093003;28;20481;-55
2021/12/16 08:01:24;;;;;;;12.07;7.90;;;12.40;55.00;;;;;;5092474;28;20436;-55
2021/12/16 08:03:50;;;;;;;12.10;9.30;;;12.10;54.60;;;;;;5092387;28;20199;-55
2021/12/16 08:06:23;;;;;;;10.23;8.23;;;11.80;55.60;;;;;;5091361;28;20530;-55
2021/12/16 08:08:51;;;;;;;12.30;8.97;;;11.80;56.00;;;;;;5089249;28;20474;-55
2021/12/16 08:11:17;;;;;;;14.77;9.70;;;11.80;56.10;;;;;;5088797;28;20443;-53
2021/12/16 08:13:43;;;;;;;12.40;8.60;;;11.90;56.00;;;;;;5090658;28;20433;-54
2021/12/16 08:16:09;;;;;;;11.60;8.97;;;11.90;55.90;;;;;;5089674;28;20430;-53
2021/12/16 08:18:35;;;;;;;11.73;9.70;;;12.00;56.00;;;;;;5088122;28;20249;-55
2021/12/16 08:21:01;;;;;;;10.33;8.20;;;12.20;55.60;;;;;;5090849;28;20302;-54
2021/12/16 08:23:27;;;;;;;10.73;8.90;;;12.30;55.10;;;;;;5092035;28;20910;-55
2021/12/16 08:25:52;;;;;;;10.03;8.07;;;12.30;55.10;;;;;;5088667;28;20440;-54
2021/12/16 08:28:18;;;;;;;9.60;8.00;;;12.40;55.30;;;;;;5090773;28;20240;-54
2021/12/16 08:30:49;;;;;;;11.30;8.93;;;12.40;55.00;;;;;;5089941;28;20492;-51
2021/12/16 08:33:16;;;;;;;11.40;8.77;;;12.50;54.70;;;;;;5091116;28;20226;-54
2021/12/16 08:35:47;;;;;;;10.87;8.53;;;12.60;54.60;;;;;;5090755;28;20494;-55
2021/12/16 08:38:16;;;;;;;11.30;7.93;;;12.30;54.60;;;;;;5090654;28;21360;-54
2021/12/16 08:40:43;;;;;;;16.03;8.90;;;12.40;55.00;;;;;;5087441;28;20433;-54
2021/12/16 08:43:10;;;;;;;12.63;9.00;;;12.50;54.70;;;;;;5091447;28;20461;-54
2021/12/16 08:45:37;;;;;;;11.70;8.70;;;12.60;54.50;;;;;;5090194;28;20421;-54
2021/12/16 08:48:04;;;;;;;12.07;9.60;;;12.50;54.40;;;;;;5089980;28;20496;-54
2021/12/16 08:50:33;;;;;;;13.90;9.47;;;12.50;54.80;;;;;;5090172;28;20812;-55
2021/12/16 08:53:00;;;;;;;13.40;9.70;;;12.40;55.30;;;;;;5090450;28;20437;-53
2021/12/16 08:55:29;;;;;;;12.60;9.90;;;12.50;55.00;;;;;;5090581;28;20433;-54
2021/12/16 08:57:56;;;;;;;14.90;11.13;;;12.30;55.00;;;;;;5091390;28;20441;-51
2021/12/16 09:00:25;;;;;;;15.10;9.73;;;12.00;55.60;;;;;;5089546;28;20499;-54
2021/12/16 09:02:51;;;;;;;12.43;10.03;;;12.00;56.30;;;;;;5089336;28;20433;-51
2021/12/16 09:05:17;;;;;;;13.80;10.97;;;12.00;56.30;;;;;;5089795;28;20429;-53
2021/12/16 09:07:46;;;;;;;13.37;10.23;;;12.20;55.90;;;;;;5088965;28;20195;-53
2021/12/16 09:10:13;;;;;;;13.30;10.10;;;12.30;55.60;;;;;;5089069;28;20486;-56
2021/12/16 09:12:52;;;;;;;12.70;9.40;;;12.10;55.80;;;;;;5090729;28;20487;-55
2021/12/16 09:15:21;;;;;;;11.60;9.27;;;12.20;55.90;;;;;;5090256;28;20432;-52
2021/12/16 09:17:46;;;;;;;12.57;9.60;;;12.20;55.80;;;;;;5089919;28;20936;-55
2021/12/16 09:20:12;;;;;;;12.23;9.20;;;12.20;55.50;;;;;;5088033;28;20520;-55
2021/12/16 09:22:38;;;;;;;10.90;8.43;;;12.30;55.70;;;;;;5091053;28;20591;-54
2021/12/16 09:25:06;;;;;;;11.17;8.80;;;12.20;56.20;;;;;;5088617;28;20244;-55
2021/12/16 09:27:31;;;;;;;14.10;11.23;;;12.30;55.50;;;;;;5089912;28;20195;-55
2021/12/16 09:29:58;;;;;;;10.97;8.73;;;12.50;55.40;;;;;;5090436;28;20908;-55
2021/12/16 09:32:28;;;;;;;11.77;9.53;;;12.50;55.20;;;;;;5089958;28;20195;-54
2021/12/16 09:34:54;;;;;;;15.60;11.10;;;12.30;55.50;;;;;;5087701;28;20951;-56
2021/12/16 09:37:20;;;;;;;14.47;11.10;;;12.20;55.40;;;;;;5089350;28;20445;-55
2021/12/16 09:39:45;;;;;;;15.07;9.97;;;12.20;55.70;;;;;;5087601;28;20492;-54
2021/12/16 09:42:11;;;;;;;13.40;10.40;;;12.40;55.60;;;;;;5087069;28;20492;-55
2021/12/16 09:44:38;;;;;;;14.10;9.90;;;12.40;55.40;;;;;;5088486;28;20217;-53
2021/12/16 09:47:08;;;;;;;11.60;9.77;;;12.30;55.30;;;;;;5088500;28;20252;-55
2021/12/16 09:49:34;;;;;;;11.27;8.97;;;12.30;55.30;;;;;;5082472;28;20445;-54
2021/12/16 09:52:00;;;;;;;10.43;8.57;;;12.30;55.10;;;;;;5087342;28;20828;-55
2021/12/16 09:54:32;;;;;;;9.83;8.27;;;12.20;55.30;;;;;;5087278;28;20425;-55
2021/12/16 09:56:58;;;;;;;9.43;7.77;;;12.30;55.40;;;;;;5083469;28;20563;-54
2021/12/16 09:59:26;;;;;;;11.43;8.53;;;12.30;55.30;;;;;;5084942;28;20516;-55
2021/12/16 10:01:56;;;;;;;9.43;7.23;;;12.20;55.40;;;;;;5088519;28;20806;-53
2021/12/16 10:04:27;;;;;;;9.53;8.07;;;12.20;55.40;;;;;;5092598;28;20435;-54
2021/12/16 10:06:56;;;;;;;10.90;8.50;;;11.90;55.30;;;;;;5091525;28;20429;-54
2021/12/16 10:09:22;;;;;;;12.73;8.30;;;11.70;56.40;;;;;;5092277;28;20773;-52
2021/12/16 10:11:51;;;;;;;8.27;7.07;;;11.70;56.50;;;;;;5089794;28;20444;-56
2021/12/16 10:19:33;;;;;;;21.90;8.87;;;12.10;55.90;;;;;;5084626;28;20621;-56
2021/12/16 10:22:20;;;;;;;13.00;8.00;;;12.30;55.90;;;;;;5090352;28;21173;-55
2021/12/16 10:24:47;;;;;;;12.67;8.90;;;12.40;55.60;;;;;;5091482;28;20825;-56
2021/12/16 10:27:15;;;;;;;19.30;9.10;;;12.40;55.50;;;;;;5089386;28;20422;-55
2021/12/16 10:29:43;;;;;;;10.80;8.60;;;12.60;55.60;;;;;;5090149;28;20443;-55
2021/12/16 10:32:32;;;;;;;14.63;7.33;;;12.60;55.20;;;;;;5091035;28;20437;-56
2021/12/16 10:35:00;;;;;;;14.03;9.47;;;12.50;55.50;;;;;;5089394;28;20487;-55
2021/12/16 10:37:30;;;;;;;10.90;7.47;;;12.30;55.80;;;;;;5092643;28;20789;-54
2021/12/16 10:40:34;;;;;;;11.17;7.93;;;12.10;56.30;;;;;;5087726;28;20571;-55
2021/12/16 10:43:09;;;;;;;13.80;9.03;;;12.20;56.50;;;;;;5088698;28;20436;-55
2021/12/16 10:45:39;;;;;;;14.20;9.30;;;12.40;56.10;;;;;;5091612;28;20490;-55
2021/12/16 10:48:11;;;;;;;15.37;7.87;;;12.50;56.00;;;;;;5091957;28;20444;-55
2021/12/16 10:51:23;;;;;;;11.40;7.67;;;12.50;55.60;;;;;;5089617;28;20504;-55
2021/12/16 10:54:00;;;;;;;12.47;8.37;;;12.50;55.80;;;;;;5075454;28;20982;-55
2021/12/16 10:56:31;;;;;;;12.07;8.90;;;12.50;55.70;;;;;;5089425;28;20808;-55
2021/12/16 10:59:20;;;;;;;13.00;8.50;;;12.50;55.80;;;;;;5090949;28;20511;-56
2021/12/16 11:01:54;;;;;;;12.10;8.60;;;12.60;55.60;;;;;;5089368;28;20857;-53
2021/12/16 11:04:23;;;;;;;10.13;8.47;;;12.60;55.50;;;;;;5091240;28;20443;-55
2021/12/16 11:07:12;;;;;;;10.83;8.80;;;12.80;55.40;;;;;;5092247;28;20448;-55
2021/12/16 11:09:50;;;;;;;9.80;7.93;;;13.00;55.20;;;;;;5083676;28;20875;-55
2021/12/16 11:12:18;;;;;;;11.47;8.07;;;13.00;54.70;;;;;;5091765;28;20467;-56
2021/12/16 11:14:56;;;;;;;11.77;8.00;;;12.90;54.70;;;;;;5092085;28;20939;-55
2021/12/16 11:17:26;;;;;;;11.20;8.77;;;12.90;54.90;;;;;;5091676;28;20518;-55
2021/12/16 11:20:00;;;;;;;10.47;8.87;;;13.00;54.70;;;;;;5091964;28;20505;-56
2021/12/16 11:22:33;;;;;;;11.30;7.90;;;13.10;54.60;;;;;;5093454;28;20448;-56
2021/12/16 11:25:11;;;;;;;9.57;8.57;;;13.10;54.50;;;;;;5092696;28;20911;-55
2021/12/16 11:27:38;;;;;;;12.03;7.33;;;13.10;54.50;;;;;;5091018;28;20897;-56
2021/12/16 11:30:32;;;;;;;9.47;7.50;;;13.10;54.20;;;;;;5092399;28;20432;-54
2021/12/16 11:33:08;;;;;;;8.73;7.53;;;13.10;54.10;;;;;;5090498;28;20438;-56
2021/12/16 11:35:38;;;;;;;13.17;8.83;;;13.00;54.20;;;;;;5089684;28;20440;-55
2021/12/16 11:38:09;;;;;;;10.47;7.80;;;13.10;54.30;;;;;;5091808;28;20443;-54
2021/12/16 11:41:09;;;;;;;9.23;8.20;;;13.20;54.10;;;;;;5092409;28;20488;-54
2021/12/16 11:43:37;;;;;;;13.33;8.60;;;13.30;54.10;;;;;;5094584;28;20911;-55
2021/12/16 11:46:07;;;;;;;10.27;7.77;;;13.40;53.90;;;;;;5090714;28;20509;-56
2021/12/16 11:48:38;;;;;;;11.30;8.60;;;13.50;53.80;;;;;;5090711;28;20425;-54
2021/12/16 11:51:11;;;;;;;9.10;7.27;;;13.40;54.10;;;;;;5089342;28;20425;-56
2021/12/16 11:53:40;;;;;;;10.80;9.10;;;13.50;54.10;;;;;;5087603;28;20516;-56
2021/12/16 11:56:06;;;;;;;12.40;8.60;;;13.60;53.70;;;;;;5090659;28;20440;-57
2021/12/16 11:58:32;;;;;;;10.87;8.70;;;13.60;53.50;;;;;;5095314;28;20508;-57
2021/12/16 12:00:58;;;;;;;14.97;8.73;;;13.20;53.50;;;;;;5087276;28;20903;-57
2021/12/16 12:03:33;;;;;;;13.20;9.10;;;12.70;54.30;;;;;;5103314;28;20991;-57
2021/12/16 12:05:59;;;;;;;11.90;9.53;;;12.20;55.80;;;;;;5090887;28;20981;-58
2021/12/16 12:08:31;;;;;;;10.90;8.90;;;12.30;56.40;;;;;;5091542;28;20426;-57
2021/12/16 12:11:00;;;;;;;12.03;8.73;;;12.40;56.30;;;;;;5091617;28;20199;-56
2021/12/16 12:13:29;;;;;;;13.00;9.57;;;12.40;56.30;;;;;;5092437;28;20924;-57
2021/12/16 12:16:01;;;;;;;12.63;9.33;;;12.30;56.00;;;;;;5090634;28;20478;-57
2021/12/16 12:18:46;;;;;;;10.73;8.87;;;12.30;56.30;;;;;;5089788;28;20535;-57
2021/12/16 12:21:39;;;;;;;14.90;9.23;;;12.20;56.40;;;;;;5086813;28;20441;-57
2021/12/16 12:24:22;;;;;;;11.10;8.70;;;12.20;56.30;;;;;;5077296;28;20457;-57
2021/12/16 12:26:55;;;;;;;11.17;9.23;;;12.00;57.00;;;;;;5090736;28;20512;-57
2021/12/16 12:29:37;;;;;;;11.60;8.73;;;12.10;57.20;;;;;;5090350;28;20441;-57
2021/12/16 12:32:18;;;;;;;10.53;9.30;;;12.20;56.80;;;;;;5090417;28;20951;-57
2021/12/16 12:34:47;;;;;;;12.33;9.73;;;12.40;56.40;;;;;;5089534;28;20472;-55
2021/12/16 12:37:18;;;;;;;15.27;10.17;;;12.20;56.60;;;;;;5089807;28;20445;-57
2021/12/16 12:39:48;;;;;;;10.70;8.13;;;12.00;56.80;;;;;;5089117;28;20527;-57
2021/12/16 12:42:15;;;;;;;10.73;8.37;;;12.10;57.10;;;;;;5089270;28;20445;-56
2021/12/16 12:44:42;;;;;;;13.90;10.17;;;12.30;56.80;;;;;;5087727;28;20516;-57
2021/12/16 12:47:13;;;;;;;10.70;8.57;;;12.50;56.70;;;;;;5089763;28;20437;-56
2021/12/16 12:49:39;;;;;;;11.20;9.50;;;12.60;56.30;;;;;;5088436;28;20437;-57
2021/12/16 12:52:09;;;;;;;11.70;9.20;;;12.60;56.20;;;;;;5089893;28;20442;-57
2021/12/16 12:54:36;;;;;;;12.30;8.43;;;12.80;56.00;;;;;;5089325;28;20441;-57
2021/12/16 12:57:38;;;;;;;12.17;9.40;;;12.70;55.80;;;;;;5090250;28;20779;-54
2021/12/16 13:00:26;;;;;;;12.03;9.83;;;12.50;56.50;;;;;;5064647;28;20847;-54
2021/12/16 13:03:23;;;;;;;12.80;8.70;;;12.30;56.60;;;;;;5083620;28;20451;-55
2021/12/16 13:06:01;;;;;;;12.70;9.57;;;12.30;56.50;;;;;;5090133;28;20453;-55
2021/12/16 13:08:32;;;;;;;11.53;8.83;;;12.50;56.50;;;;;;5090147;28;20523;-56
2021/12/16 13:11:17;;;;;;;13.17;10.20;;;12.70;56.10;;;;;;5089097;28;20448;-57
2021/12/16 13:14:22;;;;;;;13.50;9.30;;;12.90;55.80;;;;;;5102573;28;20534;-55
2021/12/16 13:23:18;;;;;;;12.03;9.00;;;13.00;55.50;;;;;;5087445;28;20564;-55
2021/12/16 13:23:29;;;;;;;12.20;9.13;;;13.20;55.20;;;;;;5088970;28;20541;-54
2021/12/16 13:28:33;;;;;;;9.60;6.90;;;13.20;55.00;;;;;;5088431;28;20512;-53
2021/12/16 13:31:04;;;;;;;9.50;7.97;;;13.30;55.10;;;;;;5087820;28;20437;-54
2021/12/16 13:33:43;;;;;;;12.23;8.07;;;13.50;55.60;;;;;;5088522;28;20788;-54
2021/12/16 13:36:26;;;;;;;11.93;9.37;;;13.70;55.80;;;;;;5089874;28;20466;-54
2021/12/16 13:38:53;;;;;;;9.30;7.50;;;13.80;55.10;;;;;;5093206;28;20480;-54
2021/12/16 13:41:25;;;;;;;10.10;7.53;;;13.80;54.40;;;;;;5091798;28;20449;-54
2021/12/16 13:44:04;;;;;;;10.93;8.50;;;13.90;54.50;;;;;;5091565;28;20440;-55
2021/12/16 13:47:05;;;;;;;12.00;8.93;;;14.00;54.40;;;;;;5089950;28;20421;-54
2021/12/16 14:01:25;;;;;;;11.63;7.97;;;14.10;52.80;;;;;;5092178;28;20491;-53
2021/12/16 14:07:01;;;;;;;9.07;8.17;;;14.30;53.10;;;;;;5056387;28;20430;-51
2021/12/16 14:09:33;;;;;;;11.07;7.97;;;14.40;53.00;;;;;;5049356;28;20831;-54
2021/12/16 14:15:11;;;;;;;13.27;10.47;;;14.40;52.70;;;;;;5093503;28;20533;-53
2021/12/16 14:18:01;;;;;;;10.60;8.60;;;14.50;52.60;;;;;;5090934;28;20413;-53
2021/12/16 14:23:35;;;;;;;12.93;9.57;;;14.50;52.20;;;;;;5094280;28;21162;-53
2021/12/16 14:45:29;;;;;;;11.33;8.77;;;14.50;52.00;;;;;;5092222;28;20448;-55
2021/12/16 14:48:22;;;;;;;11.93;8.03;;;14.50;52.00;;;;;;5089397;28;20520;-54
2021/12/16 14:51:00;;;;;;;10.90;8.97;;;14.50;52.00;;;;;;5091061;28;20440;-53
2021/12/16 14:53:27;;;;;;;9.50;7.47;;;14.60;51.90;;;;;;5088841;28;20567;-53
2021/12/16 14:56:01;;;;;;;11.30;9.07;;;14.60;51.60;;;;;;5092148;28;20964;-54
2021/12/16 14:58:27;;;;;;;13.40;10.30;;;14.60;51.40;;;;;;5087457;28;20421;-54
2021/12/16 15:01:04;;;;;;;14.63;9.77;;;14.60;51.70;;;;;;5091376;28;20430;-55
2021/12/16 15:03:35;;;;;;;17.07;11.43;;;14.50;51.70;;;;;;5092513;28;20429;-54
2021/12/16 15:06:05;;;;;;;15.20;11.00;;;14.50;51.80;;;;;;5085947;28;20445;-55
2021/12/16 15:08:49;;;;;;;7.73;6.30;;;14.50;51.90;;;;;;5088573;28;20932;-54
2021/12/16 15:11:27;;;;;;;16.90;11.40;;;14.40;52.50;;;;;;5090176;28;20827;-55
2021/12/16 15:13:58;;;;;;;12.23;8.90;;;14.50;52.90;;;;;;5090691;28;20853;-54
2021/12/16 15:16:45;;;;;;;13.53;9.03;;;14.50;52.20;;;;;;5090782;28;20475;-55
2021/12/16 15:44:09;;;;;;;12.53;9.70;;;13.90;51.80;;;;;;5064508;28;21018;-54
2021/12/16 15:46:35;;;;;;;12.40;11.07;;;13.70;52.10;;;;;;5075086;28;21291;-55
2021/12/16 15:49:02;;;;;;;15.00;11.60;;;13.60;52.50;;;;;;5090251;28;20441;-57
2021/12/16 15:51:28;;;;;;;18.30;12.60;;;13.60;52.60;;;;;;5090685;28;20195;-55
2021/12/16 15:53:59;;;;;;;16.63;12.43;;;13.60;52.60;;;;;;5084389;28;20445;-54
2021/12/16 15:56:32;;;;;;;11.97;9.97;;;13.50;52.70;;;;;;5083510;28;20183;-55
2021/12/16 15:58:59;;;;;;;12.70;10.63;;;13.40;52.80;;;;;;5076397;28;20979;-56
2021/12/16 16:01:35;;;;;;;10.87;9.03;;;13.30;52.90;;;;;;5079719;28;21001;-56
2021/12/16 16:04:09;;;;;;;13.80;10.27;;;13.20;53.10;;;;;;5087002;28;20452;-55
2021/12/16 16:06:35;;;;;;;15.03;11.07;;;13.10;53.90;;;;;;5090724;28;20433;-54
2021/12/16 16:09:10;;;;;;;15.00;12.67;;;13.00;53.70;;;;;;5091703;28;20445;-50
2021/12/16 16:11:46;;;;;;;17.40;11.70;;;12.80;54.20;;;;;;5091070;28;20186;-54
2021/12/16 16:14:13;;;;;;;11.93;9.10;;;12.80;54.50;;;;;;5090979;28;20437;-55
2021/12/16 16:16:49;;;;;;;11.47;8.67;;;12.70;54.70;;;;;;5090366;28;20460;-56
2021/12/16 16:19:19;;;;;;;10.83;8.60;;;12.70;54.90;;;;;;5087899;28;20488;-55
2021/12/16 16:21:49;;;;;;;10.33;8.63;;;12.70;55.00;;;;;;5090481;28;20422;-57
2021/12/16 16:24:26;;;;;;;13.90;8.80;;;12.70;55.50;;;;;;5091310;28;20505;-56
2021/12/16 16:26:54;;;;;;;10.53;8.97;;;12.80;55.00;;;;;;5083124;28;20463;-56
2021/12/16 16:29:23;;;;;;;11.10;9.70;;;12.70;54.90;;;;;;5090002;28;20429;-56
2021/12/16 16:31:50;;;;;;;13.00;10.27;;;12.80;55.10;;;;;;5092019;28;20908;-56